RYR7FV LIRA-EPMO
Flight info
| Callsign | RYR7FV |
|---|---|
| Flight time | 2h 7m |
| Altitude | 35000 |
| Route | OKUNO5W OKUNO L5 ATRUP DCT KOPRY/N0449F370 DCT XOMBA DCT KREMI DCT MEBAN DCT ORTEB/N0452F380 DCT KONZI DCT LOGDA LOGDA4Y |
| Aircraft | B738/M-SDE2E3FGHIRWXY/LB1 |
Departure
| Time | 2026-05-06 13:59 |
|---|---|
| Airport | Ciampino–G. B. Pastine International Airport (LIRA) |
Arrival
| Time | 2026-05-06 16:07 |
|---|---|
| Airport | Warsaw Modlin Airport (EPMO) |
| Time | Latitude | Longitude | Altitude | Speed | Heading |
|---|---|---|---|---|---|
| 2026-05-06 13:34 | 41.80011 | 12.59120 | 405 ft | 0 kts | 283° |
| 2026-05-06 13:35 | 41.80008 | 12.59125 | 403 ft | 0 kts | 288° |
| 2026-05-06 13:48 | 41.80008 | 12.59126 | 405 ft | 0 kts | 288° |
| 2026-05-06 13:51 | 41.80006 | 12.59132 | 405 ft | 4 kts | 284° |
| 2026-05-06 13:51 | 41.80008 | 12.59160 | 405 ft | 4 kts | 218° |
| 2026-05-06 13:51 | 41.80026 | 12.59180 | 400 ft | 4 kts | 259° |
| 2026-05-06 13:52 | 41.80025 | 12.59208 | 404 ft | 4 kts | 294° |
| 2026-05-06 13:52 | 41.80009 | 12.59232 | 406 ft | 3 kts | 334° |
| 2026-05-06 13:52 | 41.80020 | 12.59223 | 404 ft | 4 kts | 328° |
| 2026-05-06 13:52 | 41.80042 | 12.59204 | 406 ft | 4 kts | 329° |
| 2026-05-06 13:53 | 41.80066 | 12.59188 | 406 ft | 3 kts | 336° |
| 2026-05-06 13:53 | 41.80069 | 12.59187 | 406 ft | 2 kts | 337° |
| 2026-05-06 13:55 | 41.80069 | 12.59186 | 406 ft | 1 kts | 337° |
| 2026-05-06 13:55 | 41.80089 | 12.59175 | 406 ft | 6 kts | 335° |
| 2026-05-06 13:56 | 41.80139 | 12.59142 | 405 ft | 10 kts | 333° |
| 2026-05-06 13:56 | 41.80217 | 12.59088 | 406 ft | 15 kts | 333° |
| 2026-05-06 13:56 | 41.80314 | 12.59021 | 406 ft | 16 kts | 333° |
| 2026-05-06 13:56 | 41.80412 | 12.58954 | 406 ft | 15 kts | 333° |
| 2026-05-06 13:57 | 41.80511 | 12.58885 | 406 ft | 17 kts | 333° |
| 2026-05-06 13:57 | 41.80631 | 12.58803 | 406 ft | 21 kts | 332° |
| 2026-05-06 13:57 | 41.80716 | 12.58761 | 406 ft | 10 kts | 17° |
| 2026-05-06 13:57 | 41.80754 | 12.58830 | 412 ft | 9 kts | 65° |
| 2026-05-06 13:58 | 41.80790 | 12.58883 | 416 ft | 3 kts | 59° |
| 2026-05-06 13:58 | 41.80781 | 12.58899 | 414 ft | 2 kts | 139° |
| 2026-05-06 13:58 | 41.80775 | 12.58903 | 418 ft | 0 kts | 150° |
| 2026-05-06 13:58 | 41.80638 | 12.58998 | 414 ft | 59 kts | 153° |
| 2026-05-06 13:59 | 41.80040 | 12.59409 | 418 ft | 131 kts | 153° |
| 2026-05-06 13:59 | 41.79082 | 12.60081 | 670 ft | 167 kts | 153° |
| 2026-05-06 13:59 | 41.78085 | 12.60772 | 1769 ft | 154 kts | 157° |
| 2026-05-06 13:59 | 41.77040 | 12.61082 | 2679 ft | 157 kts | 183° |
| 2026-05-06 14:00 | 41.75896 | 12.60702 | 3196 ft | 185 kts | 204° |
| 2026-05-06 14:00 | 41.74817 | 12.59612 | 3665 ft | 204 kts | 227° |
| 2026-05-06 14:00 | 41.74139 | 12.57839 | 4222 ft | 227 kts | 249° |
| 2026-05-06 14:00 | 41.73674 | 12.55741 | 5261 ft | 234 kts | 250° |
| 2026-05-06 14:01 | 41.73120 | 12.53714 | 6767 ft | 228 kts | 251° |
| 2026-05-06 14:01 | 41.72745 | 12.51725 | 8091 ft | 212 kts | 257° |
| 2026-05-06 14:01 | 41.72255 | 12.49836 | 8934 ft | 224 kts | 232° |
| 2026-05-06 14:01 | 41.71229 | 12.48208 | 9893 ft | 232 kts | 222° |
| 2026-05-06 14:02 | 41.69975 | 12.46916 | 10843 ft | 229 kts | 220° |
| 2026-05-06 14:02 | 41.68717 | 12.45541 | 11570 ft | 233 kts | 221° |
| 2026-05-06 14:02 | 41.67422 | 12.44240 | 12120 ft | 246 kts | 209° |
| 2026-05-06 14:02 | 41.65651 | 12.43709 | 12024 ft | 275 kts | 179° |
| 2026-05-06 14:03 | 41.63791 | 12.44436 | 12451 ft | 286 kts | 153° |
| 2026-05-06 14:03 | 41.62279 | 12.46234 | 13141 ft | 300 kts | 128° |
| 2026-05-06 14:03 | 41.61440 | 12.48810 | 13941 ft | 308 kts | 102° |
| 2026-05-06 14:03 | 41.61501 | 12.51690 | 14646 ft | 317 kts | 75° |
| 2026-05-06 14:04 | 41.62520 | 12.54300 | 15292 ft | 323 kts | 48° |
| 2026-05-06 14:04 | 41.64109 | 12.56426 | 15991 ft | 328 kts | 44° |
| 2026-05-06 14:04 | 41.65747 | 12.58597 | 16706 ft | 335 kts | 46° |
| 2026-05-06 14:04 | 41.67363 | 12.60875 | 17487 ft | 342 kts | 49° |
| 2026-05-06 14:05 | 41.68887 | 12.63320 | 18243 ft | 344 kts | 61° |
| 2026-05-06 14:05 | 41.69659 | 12.66320 | 18782 ft | 342 kts | 86° |
| 2026-05-06 14:05 | 41.69888 | 12.69507 | 19231 ft | 352 kts | 89° |
| 2026-05-06 14:05 | 41.70081 | 12.72872 | 19366 ft | 373 kts | 89° |
| 2026-05-06 14:06 | 41.70323 | 12.76417 | 19514 ft | 394 kts | 84° |
| 2026-05-06 14:06 | 41.71258 | 12.79972 | 19584 ft | 418 kts | 59° |
| 2026-05-06 14:06 | 41.73225 | 12.82906 | 19757 ft | 433 kts | 35° |
| 2026-05-06 14:06 | 41.75931 | 12.84674 | 20159 ft | 435 kts | 12° |
| 2026-05-06 14:07 | 41.78903 | 12.85498 | 20764 ft | 435 kts | 8° |
| 2026-05-06 14:07 | 41.81887 | 12.86247 | 21312 ft | 438 kts | 8° |
| 2026-05-06 14:07 | 41.84896 | 12.87009 | 21801 ft | 443 kts | 8° |
| 2026-05-06 14:07 | 41.87902 | 12.88009 | 22278 ft | 451 kts | 18° |
| 2026-05-06 14:08 | 41.90720 | 12.89920 | 22783 ft | 458 kts | 32° |
| 2026-05-06 14:08 | 41.93208 | 12.92616 | 23316 ft | 462 kts | 44° |
| 2026-05-06 14:08 | 41.95348 | 12.95861 | 23760 ft | 466 kts | 50° |
| 2026-05-06 14:08 | 41.97393 | 12.99187 | 24107 ft | 470 kts | 50° |
| 2026-05-06 14:09 | 41.99503 | 13.02640 | 24495 ft | 473 kts | 50° |
| 2026-05-06 14:09 | 42.01551 | 13.05975 | 24923 ft | 476 kts | 50° |
| 2026-05-06 14:09 | 42.03678 | 13.09409 | 25317 ft | 478 kts | 50° |
| 2026-05-06 14:09 | 42.05824 | 13.12852 | 25709 ft | 481 kts | 50° |
| 2026-05-06 14:10 | 42.07979 | 13.16296 | 26141 ft | 482 kts | 49° |
| 2026-05-06 14:10 | 42.10147 | 13.19757 | 26572 ft | 484 kts | 49° |
| 2026-05-06 14:10 | 42.12320 | 13.23227 | 26874 ft | 488 kts | 49° |
| 2026-05-06 14:10 | 42.14518 | 13.26744 | 27203 ft | 492 kts | 49° |
| 2026-05-06 14:11 | 42.16728 | 13.30285 | 27514 ft | 495 kts | 49° |
| 2026-05-06 14:11 | 42.18952 | 13.33855 | 27864 ft | 498 kts | 49° |
| 2026-05-06 14:11 | 42.21186 | 13.37445 | 28175 ft | 501 kts | 49° |
| 2026-05-06 14:11 | 42.23427 | 13.41051 | 28495 ft | 503 kts | 49° |
| 2026-05-06 14:12 | 42.25688 | 13.44692 | 28753 ft | 507 kts | 49° |
| 2026-05-06 14:12 | 42.27959 | 13.48355 | 29036 ft | 510 kts | 49° |
| 2026-05-06 14:12 | 42.30239 | 13.52034 | 29350 ft | 512 kts | 50° |
| 2026-05-06 14:12 | 42.32532 | 13.55736 | 29631 ft | 515 kts | 49° |
| 2026-05-06 14:13 | 42.34990 | 13.59157 | 29997 ft | 514 kts | 40° |
| 2026-05-06 14:13 | 42.37797 | 13.62116 | 30402 ft | 510 kts | 30° |
| 2026-05-06 14:13 | 42.40825 | 13.64585 | 30829 ft | 506 kts | 27° |
| 2026-05-06 14:13 | 42.43874 | 13.66978 | 31211 ft | 505 kts | 27° |
| 2026-05-06 14:14 | 42.46925 | 13.69357 | 31546 ft | 506 kts | 27° |
| 2026-05-06 14:14 | 42.49971 | 13.71746 | 31893 ft | 505 kts | 27° |
| 2026-05-06 14:14 | 42.53011 | 13.74153 | 32218 ft | 504 kts | 27° |
| 2026-05-06 14:14 | 42.56035 | 13.76568 | 32544 ft | 504 kts | 27° |
| 2026-05-06 14:15 | 42.59054 | 13.78996 | 32831 ft | 505 kts | 27° |
| 2026-05-06 14:15 | 42.62041 | 13.81409 | 33123 ft | 506 kts | 27° |
| 2026-05-06 14:15 | 42.65063 | 13.83856 | 33415 ft | 506 kts | 27° |
| 2026-05-06 14:15 | 42.68083 | 13.86307 | 33783 ft | 504 kts | 27° |
| 2026-05-06 14:16 | 42.71081 | 13.88744 | 34283 ft | 498 kts | 27° |
| 2026-05-06 14:16 | 42.74045 | 13.91154 | 34650 ft | 496 kts | 27° |
| 2026-05-06 14:16 | 42.77014 | 13.93568 | 34887 ft | 496 kts | 27° |
| 2026-05-06 14:16 | 42.79997 | 13.95994 | 34925 ft | 500 kts | 27° |
| 2026-05-06 14:17 | 42.85818 | 14.00735 | 34926 ft | 500 kts | 27° |
| 2026-05-06 14:17 | 42.91719 | 14.05557 | 34919 ft | 496 kts | 27° |
| 2026-05-06 14:18 | 42.97625 | 14.10394 | 34934 ft | 494 kts | 27° |
| 2026-05-06 14:18 | 43.03508 | 14.15221 | 34938 ft | 493 kts | 27° |
| 2026-05-06 14:19 | 43.09397 | 14.20063 | 34928 ft | 494 kts | 27° |
| 2026-05-06 14:19 | 43.15284 | 14.24915 | 34940 ft | 494 kts | 27° |
| 2026-05-06 14:20 | 43.21174 | 14.29782 | 34938 ft | 494 kts | 27° |
| 2026-05-06 14:20 | 43.27048 | 14.34693 | 34937 ft | 495 kts | 28° |
| 2026-05-06 14:21 | 43.32934 | 14.39589 | 34956 ft | 495 kts | 28° |
| 2026-05-06 14:21 | 43.38846 | 14.44500 | 34945 ft | 496 kts | 28° |
| 2026-05-06 14:22 | 43.43771 | 14.48600 | 34937 ft | 497 kts | 27° |
| 2026-05-06 14:22 | 43.49680 | 14.53534 | 34964 ft | 497 kts | 27° |
| 2026-05-06 14:23 | 43.55588 | 14.58482 | 34947 ft | 497 kts | 28° |
| 2026-05-06 14:23 | 43.61507 | 14.63450 | 34947 ft | 498 kts | 28° |
| 2026-05-06 14:24 | 43.67420 | 14.68424 | 34962 ft | 497 kts | 28° |
| 2026-05-06 14:24 | 43.73329 | 14.73407 | 34952 ft | 498 kts | 28° |
| 2026-05-06 14:25 | 43.79245 | 14.78408 | 34954 ft | 498 kts | 28° |
| 2026-05-06 14:25 | 43.85149 | 14.83410 | 34952 ft | 498 kts | 28° |
| 2026-05-06 14:26 | 43.91052 | 14.88423 | 34952 ft | 497 kts | 28° |
| 2026-05-06 14:26 | 43.96921 | 14.93419 | 34945 ft | 497 kts | 28° |
| 2026-05-06 14:27 | 44.02797 | 14.98432 | 34964 ft | 496 kts | 29° |
| 2026-05-06 14:27 | 44.08569 | 15.03367 | 34978 ft | 496 kts | 28° |
| 2026-05-06 14:28 | 44.14437 | 15.08399 | 34985 ft | 495 kts | 29° |
| 2026-05-06 14:28 | 44.20307 | 15.13441 | 34999 ft | 495 kts | 29° |
| 2026-05-06 14:29 | 44.26162 | 15.18483 | 34993 ft | 494 kts | 29° |
| 2026-05-06 14:29 | 44.32007 | 15.23530 | 34981 ft | 494 kts | 30° |
| 2026-05-06 14:30 | 44.37797 | 15.28540 | 34990 ft | 493 kts | 30° |
| 2026-05-06 14:30 | 44.43634 | 15.33604 | 34987 ft | 493 kts | 30° |
| 2026-05-06 14:31 | 44.49448 | 15.38660 | 34981 ft | 491 kts | 30° |
| 2026-05-06 14:31 | 44.55254 | 15.43719 | 34990 ft | 491 kts | 30° |
| 2026-05-06 14:32 | 44.61049 | 15.48781 | 34979 ft | 491 kts | 30° |
| 2026-05-06 14:32 | 44.66849 | 15.53860 | 34975 ft | 491 kts | 30° |
| 2026-05-06 14:33 | 44.72657 | 15.58957 | 34984 ft | 491 kts | 31° |
| 2026-05-06 14:33 | 44.78418 | 15.64027 | 34964 ft | 492 kts | 31° |
| 2026-05-06 14:34 | 44.84220 | 15.69145 | 34949 ft | 492 kts | 31° |
| 2026-05-06 14:34 | 44.90033 | 15.74284 | 34968 ft | 492 kts | 31° |
| 2026-05-06 14:35 | 44.95841 | 15.79431 | 34940 ft | 493 kts | 31° |
| 2026-05-06 14:35 | 45.01634 | 15.84577 | 34934 ft | 493 kts | 31° |
| 2026-05-06 14:36 | 45.07447 | 15.89754 | 34936 ft | 494 kts | 31° |
| 2026-05-06 14:36 | 45.13261 | 15.94945 | 34929 ft | 494 kts | 31° |
| 2026-05-06 14:37 | 45.18999 | 16.00079 | 34928 ft | 494 kts | 31° |
| 2026-05-06 14:37 | 45.24767 | 16.05254 | 34911 ft | 494 kts | 31° |
| 2026-05-06 14:38 | 45.30573 | 16.10475 | 34932 ft | 493 kts | 32° |
| 2026-05-06 14:38 | 45.36367 | 16.15698 | 34921 ft | 492 kts | 31° |
| 2026-05-06 14:39 | 45.42155 | 16.20928 | 34928 ft | 492 kts | 31° |
| 2026-05-06 14:39 | 45.47901 | 16.26132 | 34934 ft | 492 kts | 31° |
| 2026-05-06 14:40 | 45.53675 | 16.31376 | 34910 ft | 492 kts | 31° |
| 2026-05-06 14:40 | 45.59441 | 16.36626 | 34927 ft | 491 kts | 31° |
| 2026-05-06 14:41 | 45.65209 | 16.41890 | 34934 ft | 491 kts | 31° |
| 2026-05-06 14:41 | 45.70971 | 16.47161 | 34927 ft | 491 kts | 31° |
| 2026-05-06 14:42 | 45.76729 | 16.52441 | 34938 ft | 491 kts | 31° |
| 2026-05-06 14:42 | 45.82490 | 16.57737 | 34920 ft | 492 kts | 31° |
| 2026-05-06 14:43 | 45.88242 | 16.63038 | 34934 ft | 492 kts | 31° |
| 2026-05-06 14:43 | 45.93973 | 16.68331 | 34919 ft | 493 kts | 31° |
| 2026-05-06 14:44 | 45.99738 | 16.73669 | 34926 ft | 493 kts | 31° |
| 2026-05-06 14:45 | 46.08367 | 16.81683 | 34922 ft | 492 kts | 31° |
| 2026-05-06 14:45 | 46.14123 | 16.87042 | 34915 ft | 492 kts | 31° |
| 2026-05-06 14:46 | 46.19836 | 16.92369 | 34918 ft | 491 kts | 31° |
| 2026-05-06 14:46 | 46.25638 | 16.97610 | 34897 ft | 489 kts | 26° |
| 2026-05-06 14:47 | 46.31627 | 17.01913 | 34924 ft | 487 kts | 22° |
| 2026-05-06 14:47 | 46.37760 | 17.06097 | 34913 ft | 487 kts | 22° |
| 2026-05-06 14:48 | 46.43876 | 17.10337 | 34898 ft | 487 kts | 23° |
| 2026-05-06 14:48 | 46.49969 | 17.14638 | 34894 ft | 487 kts | 24° |
| 2026-05-06 14:49 | 46.56056 | 17.18967 | 34898 ft | 487 kts | 23° |
| 2026-05-06 14:49 | 46.62139 | 17.23306 | 34884 ft | 487 kts | 23° |
| 2026-05-06 14:50 | 46.68221 | 17.27656 | 34874 ft | 486 kts | 22° |
| 2026-05-06 14:50 | 46.74291 | 17.32000 | 34891 ft | 486 kts | 22° |
| 2026-05-06 14:51 | 46.80366 | 17.36358 | 34890 ft | 485 kts | 22° |
| 2026-05-06 14:51 | 46.86416 | 17.40712 | 34897 ft | 485 kts | 23° |
| 2026-05-06 14:52 | 46.92472 | 17.45081 | 34901 ft | 485 kts | 22° |
| 2026-05-06 14:52 | 46.98517 | 17.49454 | 34893 ft | 485 kts | 22° |
| 2026-05-06 14:53 | 47.04557 | 17.53833 | 34882 ft | 486 kts | 22° |
| 2026-05-06 14:53 | 47.10625 | 17.58243 | 34893 ft | 485 kts | 22° |
| 2026-05-06 14:54 | 47.16671 | 17.62649 | 34859 ft | 485 kts | 22° |
| 2026-05-06 14:54 | 47.22702 | 17.67056 | 34865 ft | 485 kts | 23° |
| 2026-05-06 14:55 | 47.28734 | 17.71475 | 34870 ft | 484 kts | 22° |
| 2026-05-06 14:55 | 47.34764 | 17.75903 | 34856 ft | 483 kts | 23° |
| 2026-05-06 14:56 | 47.40774 | 17.80326 | 34855 ft | 482 kts | 23° |
| 2026-05-06 14:56 | 47.46778 | 17.84757 | 34858 ft | 482 kts | 22° |
| 2026-05-06 14:57 | 47.52738 | 17.89165 | 34853 ft | 481 kts | 23° |
| 2026-05-06 14:57 | 47.58723 | 17.93602 | 34854 ft | 481 kts | 23° |
| 2026-05-06 14:58 | 47.64707 | 17.98048 | 34854 ft | 480 kts | 23° |
| 2026-05-06 14:58 | 47.70588 | 18.02422 | 34854 ft | 480 kts | 23° |
| 2026-05-06 14:59 | 47.76552 | 18.06885 | 34846 ft | 480 kts | 23° |
| 2026-05-06 14:59 | 47.82472 | 18.11505 | 34845 ft | 481 kts | 24° |
| 2026-05-06 15:00 | 47.88371 | 18.16191 | 34854 ft | 480 kts | 24° |
| 2026-05-06 15:00 | 47.94274 | 18.20865 | 34846 ft | 481 kts | 24° |
| 2026-05-06 15:01 | 48.00170 | 18.25524 | 34849 ft | 481 kts | 24° |
| 2026-05-06 15:01 | 48.06084 | 18.30202 | 34859 ft | 481 kts | 24° |
| 2026-05-06 15:02 | 48.11010 | 18.34108 | 34847 ft | 482 kts | 24° |
| 2026-05-06 15:02 | 48.17938 | 18.39618 | 34847 ft | 482 kts | 24° |
| 2026-05-06 15:03 | 48.23868 | 18.44349 | 34841 ft | 483 kts | 24° |
| 2026-05-06 15:03 | 48.28840 | 18.48324 | 34854 ft | 483 kts | 24° |
| 2026-05-06 15:04 | 48.34772 | 18.53078 | 34854 ft | 483 kts | 24° |
| 2026-05-06 15:04 | 48.40701 | 18.57843 | 34855 ft | 482 kts | 24° |
| 2026-05-06 15:05 | 48.46576 | 18.62748 | 34862 ft | 486 kts | 31° |
| 2026-05-06 15:05 | 48.52011 | 18.68874 | 34860 ft | 488 kts | 34° |
| 2026-05-06 15:06 | 48.57193 | 18.74999 | 34853 ft | 489 kts | 35° |
| 2026-05-06 15:06 | 48.62508 | 18.81195 | 34867 ft | 488 kts | 34° |
| 2026-05-06 15:07 | 48.67913 | 18.87418 | 34861 ft | 488 kts | 33° |
| 2026-05-06 15:07 | 48.73329 | 18.93638 | 34870 ft | 487 kts | 34° |
| 2026-05-06 15:08 | 48.78694 | 18.99815 | 34861 ft | 487 kts | 34° |
| 2026-05-06 15:08 | 48.83550 | 19.05426 | 34899 ft | 486 kts | 34° |
| 2026-05-06 15:09 | 48.88930 | 19.11665 | 34870 ft | 486 kts | 34° |
| 2026-05-06 15:09 | 48.94297 | 19.17903 | 34870 ft | 484 kts | 34° |
| 2026-05-06 15:10 | 48.99639 | 19.24131 | 34889 ft | 484 kts | 34° |
| 2026-05-06 15:10 | 49.04937 | 19.30311 | 34868 ft | 483 kts | 34° |
| 2026-05-06 15:11 | 49.10270 | 19.36567 | 34876 ft | 483 kts | 35° |
| 2026-05-06 15:11 | 49.15602 | 19.42833 | 34887 ft | 483 kts | 34° |
| 2026-05-06 15:12 | 49.20923 | 19.49097 | 34887 ft | 483 kts | 35° |
| 2026-05-06 15:12 | 49.26256 | 19.55405 | 34897 ft | 485 kts | 35° |
| 2026-05-06 15:13 | 49.31602 | 19.61740 | 34869 ft | 486 kts | 35° |
| 2026-05-06 15:13 | 49.36957 | 19.68103 | 34862 ft | 487 kts | 35° |
| 2026-05-06 15:14 | 49.42319 | 19.74494 | 34870 ft | 488 kts | 35° |
| 2026-05-06 15:14 | 49.47685 | 19.80907 | 34863 ft | 488 kts | 35° |
| 2026-05-06 15:15 | 49.53049 | 19.87334 | 34852 ft | 489 kts | 35° |
| 2026-05-06 15:15 | 49.58404 | 19.93770 | 34856 ft | 488 kts | 35° |
| 2026-05-06 15:16 | 49.63703 | 20.00158 | 34864 ft | 488 kts | 36° |
| 2026-05-06 15:16 | 49.69010 | 20.06574 | 34852 ft | 487 kts | 36° |
| 2026-05-06 15:17 | 49.74342 | 20.13038 | 34858 ft | 486 kts | 36° |
| 2026-05-06 15:17 | 49.79629 | 20.19464 | 34852 ft | 485 kts | 36° |
| 2026-05-06 15:18 | 49.84923 | 20.25915 | 34846 ft | 484 kts | 36° |
| 2026-05-06 15:18 | 49.90232 | 20.32403 | 34845 ft | 482 kts | 36° |
| 2026-05-06 15:19 | 49.95501 | 20.38859 | 34840 ft | 482 kts | 36° |
| 2026-05-06 15:19 | 50.00745 | 20.45294 | 34838 ft | 481 kts | 36° |
| 2026-05-06 15:20 | 50.05986 | 20.51752 | 34828 ft | 481 kts | 36° |
| 2026-05-06 15:20 | 50.08782 | 20.54556 | 34832 ft | 476 kts | 24° |
| 2026-05-06 15:20 | 50.11788 | 20.56479 | 34862 ft | 471 kts | 14° |
| 2026-05-06 15:21 | 50.18192 | 20.58070 | 34858 ft | 464 kts | 360° |
| 2026-05-06 15:21 | 50.24659 | 20.58613 | 34839 ft | 466 kts | 359° |
| 2026-05-06 15:22 | 50.31155 | 20.59186 | 34832 ft | 468 kts | 359° |
| 2026-05-06 15:22 | 50.37668 | 20.59839 | 34830 ft | 470 kts | 360° |
| 2026-05-06 15:23 | 50.44204 | 20.60517 | 34835 ft | 471 kts | 0° |
| 2026-05-06 15:23 | 50.50776 | 20.61189 | 34348 ft | 479 kts | 0° |
| 2026-05-06 15:23 | 50.54080 | 20.61530 | 33748 ft | 477 kts | 0° |
| 2026-05-06 15:24 | 50.57387 | 20.61876 | 33008 ft | 476 kts | 0° |
| 2026-05-06 15:24 | 50.60682 | 20.62226 | 32389 ft | 473 kts | 0° |
| 2026-05-06 15:24 | 50.63969 | 20.62581 | 31620 ft | 473 kts | 0° |
| 2026-05-06 15:24 | 50.67246 | 20.62931 | 30880 ft | 473 kts | 0° |
| 2026-05-06 15:25 | 50.70537 | 20.63281 | 30155 ft | 473 kts | 0° |
| 2026-05-06 15:25 | 50.73762 | 20.63622 | 29606 ft | 468 kts | 360° |
| 2026-05-06 15:25 | 50.76998 | 20.63964 | 29009 ft | 463 kts | 0° |
| 2026-05-06 15:25 | 50.80202 | 20.64302 | 28478 ft | 457 kts | 0° |
| 2026-05-06 15:26 | 50.83354 | 20.64636 | 27943 ft | 451 kts | 0° |
| 2026-05-06 15:26 | 50.86466 | 20.64964 | 27404 ft | 446 kts | 0° |
| 2026-05-06 15:26 | 50.89550 | 20.65289 | 26896 ft | 441 kts | 0° |
| 2026-05-06 15:26 | 50.92600 | 20.65609 | 26387 ft | 437 kts | 360° |
| 2026-05-06 15:27 | 50.95624 | 20.65928 | 25869 ft | 434 kts | 360° |
| 2026-05-06 15:27 | 50.98622 | 20.66245 | 25357 ft | 430 kts | 360° |
| 2026-05-06 15:27 | 51.01585 | 20.66558 | 24851 ft | 427 kts | 360° |
| 2026-05-06 15:27 | 51.04538 | 20.66871 | 24352 ft | 424 kts | 360° |
| 2026-05-06 15:28 | 51.07473 | 20.67181 | 23859 ft | 421 kts | 360° |
| 2026-05-06 15:28 | 51.10379 | 20.67488 | 23360 ft | 418 kts | 360° |
| 2026-05-06 15:28 | 51.13278 | 20.67795 | 22770 ft | 416 kts | 360° |
| 2026-05-06 15:28 | 51.16159 | 20.68098 | 22247 ft | 412 kts | 360° |
| 2026-05-06 15:29 | 51.19006 | 20.68397 | 21735 ft | 408 kts | 360° |
| 2026-05-06 15:29 | 51.21832 | 20.68698 | 21239 ft | 405 kts | 360° |
| 2026-05-06 15:29 | 51.24623 | 20.69000 | 20989 ft | 397 kts | 360° |
| 2026-05-06 15:29 | 51.27339 | 20.69538 | 20808 ft | 393 kts | 13° |
| 2026-05-06 15:30 | 51.29818 | 20.71409 | 20600 ft | 401 kts | 33° |
| 2026-05-06 15:30 | 51.31992 | 20.74298 | 20335 ft | 412 kts | 41° |
| 2026-05-06 15:30 | 51.34107 | 20.77447 | 20018 ft | 417 kts | 43° |
| 2026-05-06 15:30 | 51.36196 | 20.80632 | 19726 ft | 413 kts | 43° |
| 2026-05-06 15:31 | 51.38272 | 20.83793 | 19443 ft | 410 kts | 43° |
| 2026-05-06 15:31 | 51.40347 | 20.86924 | 19154 ft | 408 kts | 42° |
| 2026-05-06 15:31 | 51.42419 | 20.90023 | 18866 ft | 407 kts | 42° |
| 2026-05-06 15:32 | 51.46537 | 20.96138 | 18299 ft | 404 kts | 42° |
| 2026-05-06 15:32 | 51.48628 | 20.99239 | 18002 ft | 404 kts | 42° |
| 2026-05-06 15:32 | 51.50596 | 21.02161 | 17712 ft | 403 kts | 42° |
| 2026-05-06 15:32 | 51.52644 | 21.05204 | 17522 ft | 398 kts | 42° |
| 2026-05-06 15:33 | 51.54670 | 21.08218 | 17322 ft | 396 kts | 42° |
| 2026-05-06 15:33 | 51.56686 | 21.11220 | 17056 ft | 395 kts | 42° |
| 2026-05-06 15:33 | 51.58704 | 21.14230 | 16787 ft | 395 kts | 42° |
| 2026-05-06 15:33 | 51.60709 | 21.17231 | 16506 ft | 395 kts | 43° |
| 2026-05-06 15:34 | 51.62719 | 21.20243 | 16236 ft | 394 kts | 43° |
| 2026-05-06 15:34 | 51.64716 | 21.23246 | 15967 ft | 392 kts | 43° |
| 2026-05-06 15:34 | 51.66703 | 21.26239 | 15675 ft | 390 kts | 43° |
| 2026-05-06 15:34 | 51.68681 | 21.29218 | 15404 ft | 387 kts | 43° |
| 2026-05-06 15:35 | 51.70641 | 21.32173 | 15143 ft | 385 kts | 43° |
| 2026-05-06 15:35 | 51.72595 | 21.35119 | 14879 ft | 382 kts | 43° |
| 2026-05-06 15:35 | 51.74526 | 21.38032 | 14618 ft | 379 kts | 43° |
| 2026-05-06 15:35 | 51.76453 | 21.40942 | 14359 ft | 377 kts | 43° |
| 2026-05-06 15:36 | 51.78360 | 21.43825 | 14095 ft | 375 kts | 43° |
| 2026-05-06 15:36 | 51.80260 | 21.46700 | 13837 ft | 372 kts | 43° |
| 2026-05-06 15:36 | 51.82151 | 21.49564 | 13579 ft | 371 kts | 43° |
| 2026-05-06 15:36 | 51.84028 | 21.52408 | 13291 ft | 369 kts | 43° |
| 2026-05-06 15:37 | 51.85875 | 21.55212 | 13013 ft | 367 kts | 43° |
| 2026-05-06 15:37 | 51.87727 | 21.58034 | 12755 ft | 365 kts | 43° |
| 2026-05-06 15:37 | 51.89592 | 21.60786 | 12490 ft | 362 kts | 37° |
| 2026-05-06 15:37 | 51.91831 | 21.62559 | 12248 ft | 355 kts | 12° |
| 2026-05-06 15:38 | 51.94250 | 21.62978 | 12003 ft | 348 kts | 352° |
| 2026-05-06 15:38 | 51.96624 | 21.62435 | 11788 ft | 343 kts | 347° |
| 2026-05-06 15:38 | 51.98978 | 21.61740 | 11538 ft | 343 kts | 346° |
| 2026-05-06 15:38 | 52.01302 | 21.61027 | 11295 ft | 342 kts | 346° |
| 2026-05-06 15:39 | 52.03646 | 21.60313 | 11055 ft | 342 kts | 346° |
| 2026-05-06 15:39 | 52.05979 | 21.59616 | 10805 ft | 338 kts | 346° |
| 2026-05-06 15:39 | 52.08266 | 21.58945 | 10574 ft | 330 kts | 346° |
| 2026-05-06 15:39 | 52.10503 | 21.58295 | 10344 ft | 323 kts | 346° |
| 2026-05-06 15:40 | 52.11951 | 21.57873 | 10202 ft | 318 kts | 345° |
| 2026-05-06 15:40 | 52.14824 | 21.57039 | 9955 ft | 307 kts | 345° |
| 2026-05-06 15:40 | 52.16882 | 21.56447 | 9947 ft | 294 kts | 345° |
| 2026-05-06 15:40 | 52.18882 | 21.55873 | 9566 ft | 295 kts | 345° |
| 2026-05-06 15:41 | 52.20863 | 21.55140 | 9283 ft | 287 kts | 335° |
| 2026-05-06 15:41 | 52.22676 | 21.53896 | 9087 ft | 279 kts | 331° |
| 2026-05-06 15:41 | 52.23843 | 21.53042 | 8942 ft | 276 kts | 331° |
| 2026-05-06 15:41 | 52.25584 | 21.51769 | 8735 ft | 273 kts | 331° |
| 2026-05-06 15:42 | 52.27316 | 21.50514 | 8551 ft | 272 kts | 331° |
| 2026-05-06 15:42 | 52.29049 | 21.49270 | 8351 ft | 271 kts | 332° |
| 2026-05-06 15:42 | 52.30775 | 21.48044 | 8163 ft | 270 kts | 332° |
| 2026-05-06 15:42 | 52.33051 | 21.46423 | 7925 ft | 269 kts | 332° |
| 2026-05-06 15:43 | 52.34209 | 21.45601 | 7786 ft | 269 kts | 332° |
| 2026-05-06 15:43 | 52.35933 | 21.44385 | 7598 ft | 269 kts | 332° |
| 2026-05-06 15:43 | 52.37653 | 21.43172 | 7403 ft | 270 kts | 332° |
| 2026-05-06 15:43 | 52.39365 | 21.41964 | 7218 ft | 270 kts | 332° |
| 2026-05-06 15:44 | 52.41092 | 21.40744 | 7028 ft | 271 kts | 332° |
| 2026-05-06 15:44 | 52.42825 | 21.39518 | 6838 ft | 271 kts | 332° |
| 2026-05-06 15:44 | 52.44562 | 21.38288 | 6644 ft | 272 kts | 332° |
| 2026-05-06 15:44 | 52.46295 | 21.37063 | 6455 ft | 270 kts | 333° |
| 2026-05-06 15:45 | 52.48008 | 21.35852 | 6255 ft | 265 kts | 333° |
| 2026-05-06 15:45 | 52.49622 | 21.34501 | 6038 ft | 256 kts | 316° |
| 2026-05-06 15:45 | 52.50634 | 21.32261 | 5873 ft | 239 kts | 287° |
| 2026-05-06 15:45 | 52.50965 | 21.29661 | 5720 ft | 228 kts | 267° |
| 2026-05-06 15:46 | 52.50809 | 21.27122 | 5575 ft | 221 kts | 259° |
| 2026-05-06 15:46 | 52.50581 | 21.24645 | 5395 ft | 216 kts | 259° |
| 2026-05-06 15:46 | 52.50361 | 21.22227 | 5255 ft | 213 kts | 259° |
| 2026-05-06 15:46 | 52.50144 | 21.19832 | 5115 ft | 212 kts | 259° |
| 2026-05-06 15:47 | 52.49929 | 21.17447 | 4968 ft | 211 kts | 259° |
| 2026-05-06 15:47 | 52.49715 | 21.15072 | 4822 ft | 210 kts | 259° |
| 2026-05-06 15:47 | 52.49502 | 21.12704 | 4679 ft | 209 kts | 259° |
| 2026-05-06 15:47 | 52.49290 | 21.10344 | 4533 ft | 208 kts | 259° |
| 2026-05-06 15:48 | 52.49080 | 21.07994 | 4382 ft | 208 kts | 259° |
| 2026-05-06 15:48 | 52.48869 | 21.05645 | 4230 ft | 208 kts | 259° |
| 2026-05-06 15:48 | 52.48658 | 21.03302 | 4088 ft | 208 kts | 260° |
| 2026-05-06 15:48 | 52.48446 | 21.00950 | 3947 ft | 208 kts | 259° |
| 2026-05-06 15:49 | 52.48237 | 20.98643 | 3820 ft | 203 kts | 259° |
| 2026-05-06 15:49 | 52.48035 | 20.96404 | 3672 ft | 193 kts | 259° |
| 2026-05-06 15:49 | 52.47839 | 20.94285 | 3533 ft | 183 kts | 259° |
| 2026-05-06 15:49 | 52.47652 | 20.92279 | 3397 ft | 173 kts | 259° |
| 2026-05-06 15:50 | 52.47475 | 20.90380 | 3263 ft | 164 kts | 259° |
| 2026-05-06 15:50 | 52.47300 | 20.88507 | 3160 ft | 167 kts | 258° |
| 2026-05-06 15:50 | 52.47123 | 20.86617 | 3046 ft | 167 kts | 258° |
| 2026-05-06 15:50 | 52.46945 | 20.84718 | 2810 ft | 167 kts | 259° |
| 2026-05-06 15:51 | 52.46773 | 20.82862 | 2568 ft | 166 kts | 259° |
| 2026-05-06 15:51 | 52.46599 | 20.80974 | 2316 ft | 165 kts | 259° |
| 2026-05-06 15:51 | 52.46432 | 20.79155 | 2072 ft | 160 kts | 259° |
| 2026-05-06 15:51 | 52.46271 | 20.77394 | 1872 ft | 150 kts | 259° |
| 2026-05-06 15:52 | 52.46118 | 20.75755 | 1607 ft | 143 kts | 259° |
| 2026-05-06 15:52 | 52.45967 | 20.74125 | 1385 ft | 146 kts | 258° |
| 2026-05-06 15:52 | 52.45811 | 20.72476 | 1158 ft | 147 kts | 261° |
| 2026-05-06 15:52 | 52.45653 | 20.70821 | 925 ft | 145 kts | 262° |
| 2026-05-06 15:53 | 52.45500 | 20.69188 | 640 ft | 144 kts | 262° |
| 2026-05-06 15:53 | 52.45348 | 20.67588 | 435 ft | 141 kts | 262° |
| 2026-05-06 15:53 | 52.45192 | 20.65904 | 805 ft | 155 kts | 263° |
| 2026-05-06 15:53 | 52.45022 | 20.64025 | 1253 ft | 179 kts | 260° |
| 2026-05-06 15:54 | 52.44834 | 20.61975 | 1687 ft | 189 kts | 259° |
| 2026-05-06 15:54 | 52.44623 | 20.59772 | 2067 ft | 203 kts | 260° |
| 2026-05-06 15:54 | 52.44391 | 20.57348 | 2579 ft | 218 kts | 259° |
| 2026-05-06 15:54 | 52.44156 | 20.54885 | 2915 ft | 221 kts | 259° |
| 2026-05-06 15:55 | 52.43918 | 20.52381 | 2973 ft | 223 kts | 260° |
| 2026-05-06 15:55 | 52.43746 | 20.49859 | 2961 ft | 222 kts | 273° |
| 2026-05-06 15:55 | 52.44255 | 20.47499 | 2987 ft | 221 kts | 295° |
| 2026-05-06 15:55 | 52.45075 | 20.45353 | 2969 ft | 225 kts | 307° |
| 2026-05-06 15:56 | 52.46408 | 20.44035 | 2990 ft | 236 kts | 343° |
| 2026-05-06 15:56 | 52.48069 | 20.44016 | 2961 ft | 246 kts | 12° |
| 2026-05-06 15:56 | 52.49558 | 20.45389 | 2975 ft | 251 kts | 45° |
| 2026-05-06 15:56 | 52.50388 | 20.47856 | 2972 ft | 249 kts | 81° |
| 2026-05-06 15:57 | 52.50579 | 20.50664 | 2971 ft | 248 kts | 87° |
| 2026-05-06 15:57 | 52.50752 | 20.53482 | 2980 ft | 248 kts | 86° |
| 2026-05-06 15:57 | 52.50928 | 20.56320 | 2977 ft | 250 kts | 85° |
| 2026-05-06 15:57 | 52.51141 | 20.59151 | 2981 ft | 251 kts | 85° |
| 2026-05-06 15:58 | 52.51359 | 20.62005 | 2977 ft | 252 kts | 85° |
| 2026-05-06 15:58 | 52.51579 | 20.64859 | 3000 ft | 252 kts | 85° |
| 2026-05-06 15:58 | 52.51797 | 20.67715 | 2991 ft | 250 kts | 85° |
| 2026-05-06 15:58 | 52.52011 | 20.70536 | 2991 ft | 246 kts | 85° |
| 2026-05-06 15:59 | 52.52223 | 20.73289 | 2986 ft | 238 kts | 85° |
| 2026-05-06 15:59 | 52.52431 | 20.75950 | 2981 ft | 233 kts | 85° |
| 2026-05-06 15:59 | 52.52637 | 20.78580 | 2988 ft | 231 kts | 85° |
| 2026-05-06 15:59 | 52.52848 | 20.81207 | 2999 ft | 232 kts | 85° |
| 2026-05-06 16:00 | 52.53063 | 20.83837 | 2998 ft | 233 kts | 85° |
| 2026-05-06 16:00 | 52.53273 | 20.86484 | 3002 ft | 234 kts | 85° |
| 2026-05-06 16:00 | 52.53483 | 20.89140 | 3005 ft | 234 kts | 85° |
| 2026-05-06 16:00 | 52.53693 | 20.91792 | 2999 ft | 234 kts | 85° |
| 2026-05-06 16:01 | 52.53844 | 20.94402 | 2986 ft | 222 kts | 98° |
| 2026-05-06 16:01 | 52.53240 | 20.96519 | 2963 ft | 201 kts | 145° |
| 2026-05-06 16:01 | 52.51990 | 20.97182 | 2944 ft | 188 kts | 193° |
| 2026-05-06 16:01 | 52.50819 | 20.96350 | 2968 ft | 187 kts | 205° |
| 2026-05-06 16:02 | 52.49518 | 20.96229 | 2988 ft | 194 kts | 170° |
| 2026-05-06 16:02 | 52.48219 | 20.96631 | 2947 ft | 181 kts | 192° |
| 2026-05-06 16:02 | 52.47189 | 20.95750 | 2979 ft | 168 kts | 224° |
| 2026-05-06 16:02 | 52.46628 | 20.94092 | 2975 ft | 166 kts | 257° |
| 2026-05-06 16:03 | 52.46649 | 20.92219 | 2975 ft | 166 kts | 274° |
| 2026-05-06 16:03 | 52.46778 | 20.90354 | 2967 ft | 165 kts | 273° |
| 2026-05-06 16:03 | 52.46905 | 20.88475 | 2978 ft | 163 kts | 273° |
| 2026-05-06 16:03 | 52.47032 | 20.86642 | 2995 ft | 165 kts | 272° |
| 2026-05-06 16:04 | 52.46980 | 20.84718 | 2794 ft | 171 kts | 257° |
| 2026-05-06 16:04 | 52.46781 | 20.82823 | 2544 ft | 170 kts | 259° |
| 2026-05-06 16:04 | 52.46600 | 20.80919 | 2296 ft | 165 kts | 259° |
| 2026-05-06 16:04 | 52.46434 | 20.79123 | 2085 ft | 151 kts | 259° |
| 2026-05-06 16:05 | 52.46281 | 20.77477 | 1842 ft | 142 kts | 259° |
| 2026-05-06 16:05 | 52.46132 | 20.75883 | 1615 ft | 141 kts | 259° |
| 2026-05-06 16:05 | 52.45986 | 20.74305 | 1407 ft | 139 kts | 259° |
| 2026-05-06 16:05 | 52.45835 | 20.72741 | 1196 ft | 139 kts | 260° |
| 2026-05-06 16:06 | 52.45687 | 20.71179 | 976 ft | 139 kts | 261° |
| 2026-05-06 16:06 | 52.45536 | 20.69629 | 756 ft | 136 kts | 262° |
| 2026-05-06 16:06 | 52.45400 | 20.68077 | 488 ft | 138 kts | 263° |
| 2026-05-06 16:06 | 52.45245 | 20.66504 | 342 ft | 140 kts | 263° |
| 2026-05-06 16:07 | 52.45119 | 20.65142 | 337 ft | 92 kts | 261° |
| 2026-05-06 16:07 | 52.45056 | 20.64469 | 337 ft | 15 kts | 262° |
| 2026-05-06 16:07 | 52.44984 | 20.64389 | 333 ft | 14 kts | 182° |
| 2026-05-06 16:07 | 52.44885 | 20.64380 | 337 ft | 14 kts | 181° |
| 2026-05-06 16:08 | 52.44790 | 20.64373 | 334 ft | 13 kts | 183° |
| 2026-05-06 16:08 | 52.44725 | 20.64376 | 335 ft | 8 kts | 151° |
| 2026-05-06 16:08 | 52.44716 | 20.64466 | 337 ft | 8 kts | 82° |
| 2026-05-06 16:08 | 52.44725 | 20.64570 | 336 ft | 11 kts | 81° |
| 2026-05-06 16:09 | 52.44740 | 20.64722 | 335 ft | 14 kts | 81° |
| 2026-05-06 16:09 | 52.44756 | 20.64885 | 336 ft | 14 kts | 81° |
| 2026-05-06 16:09 | 52.44770 | 20.65042 | 333 ft | 13 kts | 82° |
| 2026-05-06 16:09 | 52.44784 | 20.65187 | 336 ft | 12 kts | 81° |
| 2026-05-06 16:10 | 52.44787 | 20.65266 | 337 ft | 5 kts | 115° |
| 2026-05-06 16:10 | 52.44755 | 20.65265 | 337 ft | 3 kts | 201° |
| 2026-05-06 16:10 | 52.44744 | 20.65257 | 334 ft | 0 kts | 204° |
| 2026-05-06 16:12 | 52.44744 | 20.65258 | 337 ft | 0 kts | 204° |